Mount Pleasant, SC

3:03 AM EST on November 26, 2014 (GMT -0500)
Snee Farm | Change Station
CLOSE
Current Station
Personal Weather Station
Location: Mt. Pleasant, SC
Elevation: 22 ft
Nearby Weather Stations

Elev 22 ft 32.84 °N, 79.84 °W | Updated 3 minutes ago

Rain
Rain
61.8 °F
Feels Like 61.8 °F
N
0.0
Wind Variable Wind from ENE

Today
High -- | Low -- °F
--% Chance of Precip.
Yesterday
High -- | Low -- °F
Precip. -- in
6:59 AM 5:13 PM
Waxing Crescent, 17% visible
Pressure 29.78 in
Visibility 1.2 miles
Clouds Mostly Cloudy 200 ft
Overcast 900 ft
Dew Point 62 °F
Humidity 100%
Rainfall 1.34 in
Snow Depth Not available.
UV 0 out of 12
Pollen .80 out of 12
Air Quality Not available.
Flu Activity Not available.
METAR KJZI 260755Z AUTO 31007KT 1 1/4SM +RA BKN002 OVC009 17/17 A2978 RMK A02 P000

More Conditions Fewer Conditions

Pressure 29.78 in
Visibility 1.2 miles
Clouds Mostly Cloudy 200 ft
Overcast 900 ft
Dew Point 62 °F
Humidity 100%
Rainfall 1.34 in
Snow Depth Not available.
UV 0 out of 12
Pollen .80 out of 12
Air Quality Not available.
Flu Activity Not available.
METAR KJZI 260755Z AUTO 31007KT 1 1/4SM +RA BKN002 OVC009 17/17 A2978 RMK A02 P000

More Conditions Fewer Conditions

10-Day Weather Forecast

Almanac

Astronomy

Nov. 26, 2014 Rise Set
Actual Time
Civil Twilight
Nautical Twilight
Astronomical Twilight
Moon
Length of Visible Light
Length of Day
Tomorrow will be .
, % of the Moon is Illuminated

Today's Extremes

State Highs State Lows

Community

WunderPhotos

Upload Photos

1,773,694 photos uploaded!

WunderBlogs® & News

Nearby

Air Quality

  Air Quality AQ Index Pollutant
Not available.

Snow Depth

Station Depth Elevation

Earthquake Activity

City Distance Mag. Time & Date
Minimum magnitude displayed is 2.5.

Coastal Water Temperatures

Place Temperature

Nearby Weather Stations